Time;durP1;ratioP1;P1;durP2;ratioP2;P2;SDS_P1;SDS_P2;PMS_P1;PMS_P2;Temp;Humidity;BMP_temperature;BMP_pressure;BME280_temperature;BME280_humidity;BME280_pressure;Samples;Min_cycle;Max_cycle;Signal;HPM_P1;HPM_P2
2021/08/22 00:02:03;;;;;;;;;;;17.30;99.90;;;;;;5103897;28;19912;-76
2021/08/22 00:04:29;;;;;;;;;;;17.40;99.90;;;;;;5099138;28;19912;-76
2021/08/22 00:06:54;;;;;;;;;;;17.50;99.90;;;;;;5092039;28;19909;-76
2021/08/22 00:09:20;;;;;;;;;;;17.50;99.90;;;;;;5093538;28;20387;-79
2021/08/22 00:11:45;;;;;;;;;;;17.50;99.90;;;;;;5091266;28;19912;-75
2021/08/22 00:14:11;;;;;;;;;;;17.60;99.90;;;;;;5092113;28;19912;-74
2021/08/22 00:16:36;;;;;;;;;;;17.60;99.90;;;;;;5085555;28;20007;-78
2021/08/22 00:19:02;;;;;;;;;;;17.70;99.90;;;;;;5095555;28;20349;-75
2021/08/22 00:21:27;;;;;;;;;;;17.70;99.90;;;;;;5090510;28;19957;-74
2021/08/22 00:23:53;;;;;;;;;;;17.90;99.90;;;;;;5083659;28;19915;-74
2021/08/22 00:26:18;;;;;;;;;;;17.80;99.90;;;;;;5088361;28;20525;-74
2021/08/22 00:28:44;;;;;;;;;;;17.50;99.90;;;;;;5088680;28;19908;-75
2021/08/22 00:31:09;;;;;;;;;;;16.80;99.90;;;;;;5076235;28;20361;-73
2021/08/22 00:33:35;;;;;;;;;;;16.20;99.90;;;;;;5075737;28;19908;-73
2021/08/22 00:36:00;;;;;;;;;;;15.70;99.90;;;;;;5087707;28;19948;-75
2021/08/22 00:38:26;;;;;;;;;;;15.60;99.90;;;;;;5088786;28;19951;-74
2021/08/22 00:40:51;;;;;;;;;;;15.60;99.90;;;;;;5088899;28;19908;-73
2021/08/22 00:43:17;;;;;;;;;;;15.70;99.90;;;;;;5091895;28;19915;-75
2021/08/22 00:45:43;;;;;;;;;;;15.70;99.90;;;;;;5091591;28;19916;-74
2021/08/22 00:48:09;;;;;;;;;;;15.70;99.90;;;;;;5091424;28;20277;-74
2021/08/22 00:50:35;;;;;;;;;;;15.70;99.90;;;;;;5091648;28;19918;-74
2021/08/22 00:53:02;;;;;;;;;;;15.70;99.90;;;;;;5091673;28;19908;-74
2021/08/22 00:55:27;;;;;;;;;;;15.80;99.90;;;;;;5091053;28;19912;-74
2021/08/22 00:57:53;;;;;;;;;;;15.70;99.90;;;;;;5091217;28;19915;-74
2021/08/22 01:00:18;;;;;;;;;;;15.70;99.90;;;;;;5091526;28;19918;-74
2021/08/22 01:02:44;;;;;;;;;;;15.70;99.90;;;;;;5091430;28;19919;-74
2021/08/22 01:05:17;;;;;;;;;;;15.80;99.90;;;;;;5091532;28;19975;-74
2021/08/22 01:07:48;;;;;;;;;;;15.80;99.90;;;;;;5091206;28;19915;-74
2021/08/22 01:10:15;;;;;;;;;;;15.80;99.90;;;;;;5090905;28;19959;-74
2021/08/22 01:12:45;;;;;;;;;;;15.80;99.90;;;;;;5091338;28;19942;-74
2021/08/22 01:15:13;;;;;;;;;;;15.70;99.90;;;;;;5091180;28;20376;-74
2021/08/22 01:17:48;;;;;;;;;;;15.80;99.90;;;;;;5091010;28;19908;-74
2021/08/22 01:20:40;;;;;;;;;;;15.80;99.90;;;;;;5091269;28;19909;-74
2021/08/22 01:23:06;;;;;;;;;;;15.70;99.90;;;;;;5089100;28;19988;-74
2021/08/22 01:25:33;;;;;;;;;;;15.80;99.90;;;;;;5091291;28;19931;-74
2021/08/22 01:27:59;;;;;;;;;;;15.80;99.90;;;;;;5090909;28;20372;-74
2021/08/22 01:30:25;;;;;;;;;;;15.90;99.90;;;;;;5091309;28;19909;-74
2021/08/22 01:32:51;;;;;;;;;;;15.90;99.90;;;;;;5091305;28;19931;-74
2021/08/22 01:35:20;;;;;;;;;;;15.80;99.90;;;;;;5091112;28;19916;-74
2021/08/22 01:37:47;;;;;;;;;;;15.80;99.90;;;;;;5089905;28;19935;-75
2021/08/22 01:40:13;;;;;;;;;;;15.80;99.90;;;;;;5088694;28;19969;-74
2021/08/22 01:42:39;;;;;;;;;;;15.70;99.90;;;;;;5089610;28;20015;-74
2021/08/22 01:45:06;;;;;;;;;;;15.70;99.90;;;;;;5087721;28;19908;-74
2021/08/22 01:47:33;;;;;;;;;;;15.80;99.90;;;;;;5087237;28;19912;-74
2021/08/22 01:49:58;;;;;;;;;;;15.80;99.90;;;;;;5087764;28;20006;-74
2021/08/22 01:52:24;;;;;;;;;;;15.90;99.90;;;;;;5089662;28;19944;-74
2021/08/22 01:54:50;;;;;;;;;;;15.80;99.90;;;;;;5089715;28;20265;-74
2021/08/22 01:57:15;;;;;;;;;;;15.80;99.90;;;;;;5089402;28;20304;-74
2021/08/22 01:59:41;;;;;;;;;;;15.70;99.90;;;;;;5089919;28;19934;-74
2021/08/22 02:02:06;;;;;;;;;;;15.80;99.90;;;;;;5089645;28;19916;-74
2021/08/22 02:04:35;;;;;;;;;;;15.80;99.90;;;;;;5091141;28;19908;-74
2021/08/22 02:07:02;;;;;;;;;;;15.70;99.90;;;;;;5093816;28;19975;-74
2021/08/22 02:09:41;;;;;;;;;;;15.70;99.90;;;;;;5094365;28;19920;-74
2021/08/22 02:12:09;;;;;;;;;;;15.80;99.90;;;;;;5094490;28;20009;-74
2021/08/22 02:14:36;;;;;;;;;;;15.80;99.90;;;;;;5094699;28;19912;-74
2021/08/22 02:17:01;;;;;;;;;;;15.80;99.90;;;;;;5094654;28;20270;-74
2021/08/22 02:19:27;;;;;;;;;;;15.80;99.90;;;;;;5094640;28;19915;-74
2021/08/22 02:21:53;;;;;;;;;;;15.70;99.90;;;;;;5094477;28;19908;-74
2021/08/22 02:24:19;;;;;;;;;;;15.70;99.90;;;;;;5094608;28;19994;-74
2021/08/22 02:26:44;;;;;;;;;;;15.80;99.90;;;;;;5094029;28;19912;-74
2021/08/22 02:29:10;;;;;;;;;;;15.80;99.90;;;;;;5094475;28;19908;-74
2021/08/22 02:31:36;;;;;;;;;;;15.80;99.90;;;;;;5094402;28;20101;-74
2021/08/22 02:34:01;;;;;;;;;;;15.70;99.90;;;;;;5094224;28;19919;-74
2021/08/22 02:36:27;;;;;;;;;;;15.70;99.90;;;;;;5093824;28;19912;-74
2021/08/22 02:38:53;;;;;;;;;;;15.70;99.90;;;;;;5093713;28;19908;-74
2021/08/22 02:41:19;;;;;;;;;;;15.80;99.90;;;;;;5093815;28;19908;-74
2021/08/22 02:43:45;;;;;;;;;;;15.70;99.90;;;;;;5094213;28;19912;-74
2021/08/22 02:46:10;;;;;;;;;;;15.80;99.90;;;;;;5093534;28;19963;-74
2021/08/22 02:48:36;;;;;;;;;;;15.70;99.90;;;;;;5094017;28;19959;-74
2021/08/22 02:51:02;;;;;;;;;;;15.70;99.90;;;;;;5093935;28;19936;-74
2021/08/22 02:53:28;;;;;;;;;;;15.60;99.90;;;;;;5093861;28;20399;-74
2021/08/22 02:55:54;;;;;;;;;;;15.60;99.90;;;;;;5093858;28;20006;-74
2021/08/22 02:58:20;;;;;;;;;;;15.60;99.90;;;;;;5093593;28;19941;-74
2021/08/22 03:00:45;;;;;;;;;;;15.50;99.90;;;;;;5093792;28;19915;-74
2021/08/22 03:03:11;;;;;;;;;;;15.60;99.90;;;;;;5089278;28;19909;-74
2021/08/22 03:05:36;;;;;;;;;;;15.60;99.90;;;;;;5089512;28;19916;-74
2021/08/22 03:08:02;;;;;;;;;;;15.60;99.90;;;;;;5093102;28;19908;-74
2021/08/22 03:10:28;;;;;;;;;;;15.60;99.90;;;;;;5093347;28;20166;-74
2021/08/22 03:12:53;;;;;;;;;;;15.50;99.90;;;;;;5093632;28;20384;-74
2021/08/22 03:15:19;;;;;;;;;;;15.60;99.90;;;;;;5093394;28;19912;-74
2021/08/22 03:17:44;;;;;;;;;;;15.60;99.90;;;;;;5091974;28;19915;-74
2021/08/22 03:20:10;;;;;;;;;;;15.50;99.90;;;;;;5093238;28;19919;-74
2021/08/22 03:22:35;;;;;;;;;;;15.60;99.90;;;;;;5093418;28;20357;-74
2021/08/22 03:25:04;;;;;;;;;;;15.60;99.90;;;;;;5092995;28;20003;-74
2021/08/22 03:27:29;;;;;;;;;;;15.60;99.90;;;;;;5092849;28;20322;-74
2021/08/22 03:29:55;;;;;;;;;;;15.50;99.90;;;;;;5092918;28;19908;-74
2021/08/22 03:32:20;;;;;;;;;;;15.50;99.90;;;;;;5093144;28;19953;-74
2021/08/22 03:34:46;;;;;;;;;;;15.50;99.90;;;;;;5085334;28;19923;-74
2021/08/22 03:37:11;;;;;;;;;;;15.50;99.90;;;;;;5092597;28;20285;-74
2021/08/22 03:39:37;;;;;;;;;;;15.50;99.90;;;;;;5093011;28;20392;-74
2021/08/22 03:42:02;;;;;;;;;;;15.40;99.90;;;;;;5093055;28;19916;-74
2021/08/22 03:44:28;;;;;;;;;;;15.40;99.90;;;;;;5092984;28;20398;-74
2021/08/22 03:46:53;;;;;;;;;;;15.30;99.90;;;;;;5091256;28;19923;-74
2021/08/22 03:49:19;;;;;;;;;;;15.30;99.90;;;;;;5092751;28;19909;-74
2021/08/22 03:51:44;;;;;;;;;;;15.20;99.90;;;;;;5092984;28;19914;-74
2021/08/22 03:54:10;;;;;;;;;;;15.20;99.90;;;;;;5092827;28;20015;-74
2021/08/22 03:56:35;;;;;;;;;;;15.20;99.90;;;;;;5092382;28;19914;-74
2021/08/22 03:59:06;;;;;;;;;;;15.20;99.90;;;;;;5092755;28;19908;-74
2021/08/22 04:01:32;;;;;;;;;;;15.10;99.90;;;;;;5092983;28;20249;-74
2021/08/22 04:03:57;;;;;;;;;;;15.10;99.90;;;;;;5084910;28;19919;-74
2021/08/22 04:06:25;;;;;;;;;;;15.20;99.90;;;;;;5106546;28;19908;-74
2021/08/22 04:08:50;;;;;;;;;;;15.20;99.90;;;;;;5112840;28;20003;-74
2021/08/22 04:11:16;;;;;;;;;;;15.20;99.90;;;;;;5112679;28;19947;-74
2021/08/22 04:13:41;;;;;;;;;;;15.20;99.90;;;;;;5112744;28;20322;-74
2021/08/22 04:16:07;;;;;;;;;;;15.20;99.90;;;;;;5112771;28;19908;-74
2021/08/22 04:18:32;;;;;;;;;;;15.10;99.90;;;;;;5112432;28;19932;-74
2021/08/22 04:20:58;;;;;;;;;;;15.20;99.90;;;;;;5112321;28;19923;-74
2021/08/22 04:23:23;;;;;;;;;;;15.20;99.90;;;;;;5112550;28;20405;-74
2021/08/22 04:25:49;;;;;;;;;;;15.20;99.90;;;;;;5112723;28;20368;-74
2021/08/22 04:28:14;;;;;;;;;;;15.20;99.90;;;;;;5111960;28;20376;-74
2021/08/22 04:30:40;;;;;;;;;;;15.10;99.90;;;;;;5112402;28;19947;-74
2021/08/22 04:33:05;;;;;;;;;;;15.10;99.90;;;;;;5106950;28;19912;-74
2021/08/22 04:35:31;;;;;;;;;;;15.10;99.90;;;;;;5087238;28;19912;-74
2021/08/22 04:37:56;;;;;;;;;;;15.10;99.90;;;;;;5091377;28;20357;-74
2021/08/22 04:40:22;;;;;;;;;;;15.20;99.90;;;;;;5091885;28;20003;-74
2021/08/22 04:42:47;;;;;;;;;;;15.20;99.90;;;;;;5091940;28;19950;-74
2021/08/22 04:45:13;;;;;;;;;;;15.20;99.90;;;;;;5092073;28;20027;-74
2021/08/22 04:47:38;;;;;;;;;;;15.30;99.90;;;;;;5091295;28;20356;-74
2021/08/22 04:50:04;;;;;;;;;;;15.30;99.90;;;;;;5091803;28;19908;-74
2021/08/22 04:52:30;;;;;;;;;;;15.40;99.90;;;;;;5091511;28;19953;-74
2021/08/22 04:54:55;;;;;;;;;;;15.50;99.90;;;;;;5091663;28;20316;-74
2021/08/22 04:57:21;;;;;;;;;;;15.60;99.90;;;;;;5091257;28;20364;-74
2021/08/22 04:59:46;;;;;;;;;;;15.60;99.90;;;;;;5091713;28;19927;-74
2021/08/22 05:02:12;;;;;;;;;;;15.70;99.90;;;;;;5091480;28;19918;-74
2021/08/22 05:04:37;;;;;;;;;;;15.80;99.90;;;;;;5082710;28;19931;-74
2021/08/22 05:07:05;;;;;;;;;;;15.80;99.90;;;;;;5090958;28;19934;-74
2021/08/22 05:09:31;;;;;;;;;;;15.90;99.90;;;;;;5091642;28;20000;-74
2021/08/22 05:11:56;;;;;;;;;;;15.90;99.90;;;;;;5091454;28;19951;-74
2021/08/22 05:14:22;;;;;;;;;;;16.00;99.90;;;;;;5091380;28;19919;-74
2021/08/22 05:16:48;;;;;;;;;;;16.10;99.90;;;;;;5089695;28;19912;-74
2021/08/22 05:19:14;;;;;;;;;;;16.10;99.90;;;;;;5091482;28;19908;-74
2021/08/22 05:21:40;;;;;;;;;;;16.10;99.90;;;;;;5091242;28;20311;-74
2021/08/22 05:24:05;;;;;;;;;;;16.10;99.90;;;;;;5091332;28;19912;-74
2021/08/22 05:26:31;;;;;;;;;;;16.00;99.90;;;;;;5090922;28;19909;-74
2021/08/22 05:28:56;;;;;;;;;;;15.90;99.90;;;;;;5091352;28;19912;-74
2021/08/22 05:31:22;;;;;;;;;;;15.80;99.90;;;;;;5091019;28;19931;-74
2021/08/22 05:33:47;;;;;;;;;;;15.80;99.90;;;;;;5083644;28;20377;-74
2021/08/22 05:36:14;;;;;;;;;;;15.80;99.90;;;;;;5090571;28;19908;-74
2021/08/22 05:38:39;;;;;;;;;;;15.90;99.90;;;;;;5091285;28;19915;-74
2021/08/22 05:41:05;;;;;;;;;;;15.90;99.90;;;;;;5093259;28;19908;-74
2021/08/22 05:43:30;;;;;;;;;;;15.90;99.90;;;;;;5095315;28;19908;-74
2021/08/22 05:45:56;;;;;;;;;;;16.00;99.90;;;;;;5094996;28;19927;-74
2021/08/22 05:48:21;;;;;;;;;;;16.20;99.90;;;;;;5094866;28;20387;-74
2021/08/22 05:50:47;;;;;;;;;;;16.20;99.90;;;;;;5095060;28;19908;-74
2021/08/22 05:53:12;;;;;;;;;;;16.40;99.90;;;;;;5095194;28;19912;-74
2021/08/22 05:55:38;;;;;;;;;;;16.40;99.90;;;;;;5095051;28;19912;-74
2021/08/22 05:58:03;;;;;;;;;;;16.40;99.90;;;;;;5094759;28;19919;-74
2021/08/22 06:00:29;;;;;;;;;;;16.50;99.90;;;;;;5094856;28;19931;-74
2021/08/22 06:02:54;;;;;;;;;;;16.60;99.90;;;;;;5092608;28;19918;-74
2021/08/22 06:05:20;;;;;;;;;;;16.80;99.90;;;;;;5088528;28;19908;-74
2021/08/22 06:07:45;;;;;;;;;;;16.90;99.90;;;;;;5094318;28;19999;-74
2021/08/22 06:10:11;;;;;;;;;;;16.90;99.90;;;;;;5094886;28;19962;-74
2021/08/22 06:12:36;;;;;;;;;;;17.10;99.90;;;;;;5094762;28;19919;-74
2021/08/22 06:15:02;;;;;;;;;;;17.20;99.90;;;;;;5094849;28;19947;-74
2021/08/22 06:17:28;;;;;;;;;;;17.20;99.90;;;;;;5094532;28;20422;-74
2021/08/22 06:19:53;;;;;;;;;;;17.20;99.90;;;;;;5095764;28;19908;-74
2021/08/22 06:22:19;;;;;;;;;;;17.30;99.90;;;;;;5095798;28;19908;-74
2021/08/22 06:24:44;;;;;;;;;;;17.30;99.90;;;;;;5094886;28;20304;-74
2021/08/22 06:27:10;;;;;;;;;;;17.40;99.90;;;;;;5094695;28;19934;-74
2021/08/22 06:29:35;;;;;;;;;;;17.40;99.90;;;;;;5094494;28;19915;-74
2021/08/22 06:32:01;;;;;;;;;;;17.40;99.90;;;;;;5095516;28;19993;-74
2021/08/22 06:34:27;;;;;;;;;;;17.40;99.90;;;;;;5088125;28;20262;-74
2021/08/22 06:36:53;;;;;;;;;;;17.50;99.90;;;;;;5094379;28;20078;-74
2021/08/22 06:39:18;;;;;;;;;;;17.70;99.90;;;;;;5094654;28;19908;-74
2021/08/22 06:41:44;;;;;;;;;;;17.90;99.90;;;;;;5094661;28;19908;-74
2021/08/22 06:44:10;;;;;;;;;;;17.90;99.90;;;;;;5094876;28;19908;-74
2021/08/22 06:46:36;;;;;;;;;;;18.00;99.90;;;;;;5094138;28;19920;-74
2021/08/22 06:49:01;;;;;;;;;;;18.10;99.90;;;;;;5094314;28;20031;-74
2021/08/22 06:51:28;;;;;;;;;;;18.10;99.90;;;;;;5094170;28;19909;-74
2021/08/22 06:53:55;;;;;;;;;;;18.10;99.90;;;;;;5094206;28;20377;-74
2021/08/22 06:56:20;;;;;;;;;;;18.10;99.90;;;;;;5093870;28;19916;-74
2021/08/22 06:58:46;;;;;;;;;;;18.10;99.90;;;;;;5094011;28;19912;-74
2021/08/22 07:01:14;;;;;;;;;;;18.00;99.90;;;;;;5094104;28;19919;-74
2021/08/22 07:03:39;;;;;;;;;;;18.20;99.90;;;;;;5086475;28;19916;-74
2021/08/22 07:06:05;;;;;;;;;;;18.10;99.90;;;;;;5093537;28;19908;-74
2021/08/22 07:08:30;;;;;;;;;;;18.00;99.90;;;;;;5092946;28;19931;-74
2021/08/22 07:10:56;;;;;;;;;;;17.90;99.90;;;;;;5094252;28;19944;-74
2021/08/22 07:13:21;;;;;;;;;;;18.10;99.90;;;;;;5093839;28;19908;-74
2021/08/22 07:15:47;;;;;;;;;;;18.20;99.90;;;;;;5093706;28;19969;-74
2021/08/22 07:18:12;;;;;;;;;;;18.10;99.90;;;;;;5093066;28;19938;-73
2021/08/22 07:20:38;;;;;;;;;;;18.00;99.90;;;;;;5093483;28;20276;-74
2021/08/22 07:23:03;;;;;;;;;;;18.10;99.90;;;;;;5093788;28;20070;-74
2021/08/22 07:25:29;;;;;;;;;;;18.20;99.90;;;;;;5093636;28;19908;-74
2021/08/22 07:27:54;;;;;;;;;;;18.10;99.90;;;;;;5092984;28;20007;-74
2021/08/22 07:30:22;;;;;;;;;;;18.20;99.90;;;;;;5093470;28;20322;-74
2021/08/22 07:32:47;;;;;;;;;;;18.20;99.90;;;;;;5093201;28;19909;-74
2021/08/22 07:35:13;;;;;;;;;;;18.30;99.90;;;;;;5085885;28;20391;-74
2021/08/22 07:37:38;;;;;;;;;;;18.40;99.90;;;;;;5091645;28;19915;-73
2021/08/22 07:40:05;;;;;;;;;;;18.60;99.90;;;;;;5093326;28;19908;-74
2021/08/22 07:42:30;;;;;;;;;;;18.70;99.90;;;;;;5093073;28;20418;-74
2021/08/22 07:44:56;;;;;;;;;;;18.90;99.90;;;;;;5093276;28;19908;-73
2021/08/22 07:47:21;;;;;;;;;;;19.00;99.90;;;;;;5092708;28;19923;-74
2021/08/22 07:49:47;;;;;;;;;;;18.90;99.90;;;;;;5093064;28;19908;-73
2021/08/22 07:52:12;;;;;;;;;;;18.90;99.90;;;;;;5093094;28;19912;-73
2021/08/22 07:54:38;;;;;;;;;;;18.80;99.90;;;;;;5092974;28;20003;-73
2021/08/22 07:57:03;;;;;;;;;;;18.70;99.90;;;;;;5092470;28;19915;-74
2021/08/22 07:59:29;;;;;;;;;;;18.70;99.90;;;;;;5092914;28;19961;-73
2021/08/22 08:01:56;;;;;;;;;;;18.90;99.90;;;;;;5092635;28;19933;-74
2021/08/22 08:04:22;;;;;;;;;;;19.10;99.90;;;;;;5084739;28;20365;-74
2021/08/22 08:06:48;;;;;;;;;;;19.10;99.90;;;;;;5092208;28;19974;-73
2021/08/22 08:09:13;;;;;;;;;;;19.10;99.90;;;;;;5092816;28;19908;-74
2021/08/22 08:11:39;;;;;;;;;;;19.10;99.90;;;;;;5091113;28;19915;-73
2021/08/22 08:14:04;;;;;;;;;;;19.10;99.90;;;;;;5092773;28;20019;-73
2021/08/22 08:16:30;;;;;;;;;;;19.20;99.90;;;;;;5092239;28;19908;-73
2021/08/22 08:18:55;;;;;;;;;;;19.60;99.90;;;;;;5092434;28;19912;-74
2021/08/22 08:21:21;;;;;;;;;;;20.00;99.90;;;;;;5092457;28;19908;-74
2021/08/22 08:23:46;;;;;;;;;;;20.10;99.90;;;;;;5092933;28;19919;-74
2021/08/22 08:26:12;;;;;;;;;;;20.00;99.90;;;;;;5091988;28;19991;-73
2021/08/22 08:28:37;;;;;;;;;;;20.10;99.90;;;;;;5092398;28;20360;-74
2021/08/22 08:31:03;;;;;;;;;;;20.30;99.90;;;;;;5092024;28;19914;-74
2021/08/22 08:33:29;;;;;;;;;;;20.50;99.90;;;;;;5086613;28;20300;-74
2021/08/22 08:35:54;;;;;;;;;;;20.50;99.90;;;;;;5090223;28;19912;-73
2021/08/22 08:38:20;;;;;;;;;;;20.60;99.90;;;;;;5091940;28;19999;-74
2021/08/22 08:40:46;;;;;;;;;;;20.60;99.90;;;;;;5092074;28;20457;-74
2021/08/22 08:43:12;;;;;;;;;;;20.80;99.90;;;;;;5092293;28;19912;-74
2021/08/22 08:45:46;;;;;;;;;;;20.70;99.90;;;;;;5092136;28;20261;-74
2021/08/22 08:48:18;;;;;;;;;;;20.80;99.90;;;;;;5091865;28;19912;-74
2021/08/22 08:50:49;;;;;;;;;;;21.10;99.90;;;;;;5091953;28;19908;-74
2021/08/22 08:53:18;;;;;;;;;;;21.40;99.90;;;;;;5091791;28;19963;-74
2021/08/22 08:55:48;;;;;;;;;;;21.60;99.90;;;;;;5091787;28;19912;-73
2021/08/22 08:58:14;;;;;;;;;;;21.30;99.90;;;;;;5091428;28;19936;-74
2021/08/22 09:00:40;;;;;;;;;;;21.30;99.90;;;;;;5091708;28;20009;-73
2021/08/22 09:03:06;;;;;;;;;;;21.30;99.90;;;;;;5089000;28;19946;-74
2021/08/22 09:05:37;;;;;;;;;;;21.00;99.90;;;;;;5087902;28;19931;-73
2021/08/22 09:08:20;;;;;;;;;;;20.90;99.90;;;;;;5092882;28;19909;-73
2021/08/22 09:11:04;;;;;;;;;;;20.90;99.90;;;;;;5093227;28;19908;-73
2021/08/22 09:13:32;;;;;;;;;;;20.70;99.90;;;;;;5092989;28;19923;-73
2021/08/22 09:16:16;;;;;;;;;;;20.50;99.90;;;;;;5092178;28;20269;-74
2021/08/22 09:19:00;;;;;;;;;;;20.60;99.90;;;;;;5093326;28;20368;-73
2021/08/22 09:21:32;;;;;;;;;;;20.40;99.90;;;;;;5093231;28;19954;-74
2021/08/22 09:24:24;;;;;;;;;;;20.40;99.90;;;;;;5093476;28;20026;-73
2021/08/22 09:26:49;;;;;;;;;;;20.50;99.90;;;;;;5053585;28;19961;-73
2021/08/22 09:29:33;;;;;;;;;;;20.70;99.90;;;;;;5109634;28;19908;-73
2021/08/22 09:32:17;;;;;;;;;;;20.70;99.90;;;;;;5108528;28;19934;-73
2021/08/22 09:35:02;;;;;;;;;;;20.80;99.90;;;;;;5084689;28;20174;-73
2021/08/22 09:37:39;;;;;;;;;;;21.00;99.90;;;;;;5087787;28;19908;-73
2021/08/22 09:40:23;;;;;;;;;;;21.00;99.90;;;;;;5088293;28;20372;-73
2021/08/22 09:43:07;;;;;;;;;;;21.00;99.90;;;;;;5089780;28;19915;-73
2021/08/22 09:45:51;;;;;;;;;;;21.00;99.90;;;;;;5090986;28;20323;-73
2021/08/22 09:48:32;;;;;;;;;;;21.20;99.90;;;;;;5091239;28;19912;-73
2021/08/22 09:51:10;;;;;;;;;;;21.10;99.90;;;;;;5089907;28;19922;-73
2021/08/22 09:53:38;;;;;;;;;;;21.00;99.90;;;;;;5091298;28;19908;-73
2021/08/22 09:56:22;;;;;;;;;;;20.90;99.90;;;;;;5090769;28;20016;-73
2021/08/22 09:58:50;;;;;;;;;;;21.10;99.90;;;;;;5091154;28;19908;-73
2021/08/22 10:01:16;;;;;;;;;;;21.20;99.90;;;;;;5091006;28;19908;-73
2021/08/22 10:03:51;;;;;;;;;;;21.10;99.90;;;;;;5083620;28;19908;-73
2021/08/22 10:06:23;;;;;;;;;;;21.10;99.90;;;;;;5090394;28;20277;-73
2021/08/22 10:08:57;;;;;;;;;;;21.00;99.90;;;;;;5091111;28;19993;-73
2021/08/22 10:11:34;;;;;;;;;;;20.80;99.90;;;;;;5090984;28;19942;-73
2021/08/22 10:13:59;;;;;;;;;;;20.70;99.90;;;;;;5090931;28;20479;-73
2021/08/22 10:16:25;;;;;;;;;;;20.60;99.90;;;;;;5090512;28;20003;-73
2021/08/22 10:18:51;;;;;;;;;;;20.60;99.90;;;;;;5090661;28;19915;-73
2021/08/22 10:21:26;;;;;;;;;;;20.60;99.90;;;;;;5090922;28;19981;-73
2021/08/22 10:23:54;;;;;;;;;;;20.50;99.90;;;;;;5091237;28;19908;-73
2021/08/22 10:26:38;;;;;;;;;;;20.40;99.90;;;;;;5091311;28;19963;-73
2021/08/22 10:29:06;;;;;;;;;;;20.10;99.90;;;;;;5094567;28;20292;-73
2021/08/22 10:31:50;;;;;;;;;;;19.90;99.90;;;;;;5094536;28;19962;-73
2021/08/22 10:34:18;;;;;;;;;;;20.00;99.90;;;;;;5086905;28;19935;-73
2021/08/22 10:36:43;;;;;;;;;;;20.00;99.90;;;;;;5093956;28;19915;-74
2021/08/22 10:39:27;;;;;;;;;;;20.10;99.90;;;;;;5094522;28;19908;-73
2021/08/22 10:41:53;;;;;;;;;;;20.10;99.90;;;;;;5094480;28;19965;-74
2021/08/22 10:44:34;;;;;;;;;;;20.10;99.90;;;;;;5094269;28;20380;-73
2021/08/22 10:47:07;;;;;;;;;;;20.30;99.90;;;;;;5093793;28;20003;-74
2021/08/22 10:49:52;;;;;;;;;;;20.50;99.90;;;;;;5094315;28;19908;-73
2021/08/22 10:52:21;;;;;;;;;;;20.60;99.90;;;;;;5094072;28;19966;-73
2021/08/22 10:55:05;;;;;;;;;;;20.80;99.90;;;;;;5094275;28;20352;-73
2021/08/22 11:00:27;;;;;;;;;;;20.70;99.90;;;;;;5093938;28;19908;-73
2021/08/22 11:02:54;;;;;;;;;;;20.50;99.90;;;;;;5085919;28;19915;-73
2021/08/22 11:05:20;;;;;;;;;;;20.60;99.90;;;;;;5093820;28;19930;-73
2021/08/22 11:07:46;;;;;;;;;;;20.60;99.90;;;;;;5093463;28;19914;-73
2021/08/22 11:10:13;;;;;;;;;;;20.60;99.90;;;;;;5093755;28;19946;-73
2021/08/22 11:12:39;;;;;;;;;;;20.70;99.90;;;;;;5093767;28;19916;-73
2021/08/22 11:15:05;;;;;;;;;;;20.60;99.90;;;;;;5093389;28;19912;-73
2021/08/22 11:17:31;;;;;;;;;;;20.30;99.90;;;;;;5093403;28;19940;-73
2021/08/22 11:20:09;;;;;;;;;;;20.00;99.90;;;;;;5092472;28;19919;-73
2021/08/22 11:22:35;;;;;;;;;;;20.00;99.90;;;;;;5092291;28;19915;-73
2021/08/22 11:25:00;;;;;;;;;;;19.80;99.90;;;;;;5093506;28;19908;-72
2021/08/22 11:27:27;;;;;;;;;;;20.00;99.90;;;;;;5092946;28;19915;-73
2021/08/22 11:29:54;;;;;;;;;;;20.10;99.90;;;;;;5092109;28;19916;-73
2021/08/22 11:32:19;;;;;;;;;;;19.90;99.90;;;;;;5086211;28;19916;-72
2021/08/22 11:34:45;;;;;;;;;;;19.90;99.90;;;;;;5093105;28;19912;-73
2021/08/22 11:37:14;;;;;;;;;;;19.70;99.90;;;;;;5092875;28;19908;-72
2021/08/22 11:39:40;;;;;;;;;;;19.80;99.90;;;;;;5092361;28;19951;-73
2021/08/22 11:42:05;;;;;;;;;;;20.00;99.90;;;;;;5093540;28;19943;-73
2021/08/22 11:44:31;;;;;;;;;;;19.90;99.90;;;;;;5093092;28;19909;-73
2021/08/22 11:46:57;;;;;;;;;;;19.70;99.90;;;;;;5092676;28;19927;-73
2021/08/22 11:49:23;;;;;;;;;;;19.60;99.90;;;;;;5093047;28;19961;-72
2021/08/22 11:51:52;;;;;;;;;;;19.60;99.90;;;;;;5092960;28;20327;-73
2021/08/22 11:54:18;;;;;;;;;;;19.40;99.90;;;;;;5092870;28;19920;-73
2021/08/22 11:56:44;;;;;;;;;;;19.40;99.90;;;;;;5092502;28;20258;-73
2021/08/22 11:59:23;;;;;;;;;;;19.50;99.90;;;;;;5090651;28;19998;-73
2021/08/22 12:01:48;;;;;;;;;;;19.40;99.90;;;;;;5092545;28;19908;-73
2021/08/22 12:04:17;;;;;;;;;;;19.30;99.90;;;;;;5092856;28;19915;-74
2021/08/22 12:06:42;;;;;;;;;;;19.20;99.90;;;;;;5092419;28;20349;-74
2021/08/22 12:09:16;;;;;;;;;;;19.00;99.90;;;;;;5092538;28;19915;-73
2021/08/22 12:11:42;;;;;;;;;;;18.90;99.90;;;;;;5092405;28;19908;-73
2021/08/22 12:14:16;;;;;;;;;;;18.70;99.90;;;;;;5092519;28;19923;-73
2021/08/22 12:16:55;;;;;;;;;;;18.50;99.90;;;;;;5092139;28;19931;-73
2021/08/22 12:19:23;;;;;;;;;;;18.30;99.90;;;;;;5092482;28;20377;-73
2021/08/22 12:21:49;;;;;;;;;;;18.20;99.90;;;;;;5092053;28;19908;-73
2021/08/22 12:24:18;;;;;;;;;;;18.10;99.90;;;;;;5092391;28;19908;-73
2021/08/22 12:26:54;;;;;;;;;;;18.00;99.90;;;;;;5092049;28;19908;-73
2021/08/22 12:29:26;;;;;;;;;;;17.90;99.90;;;;;;5086142;28;20284;-73
2021/08/22 12:31:55;;;;;;;;;;;17.80;99.90;;;;;;5090228;28;19909;-73
2021/08/22 12:34:21;;;;;;;;;;;17.60;99.90;;;;;;5091999;28;19923;-73
2021/08/22 12:36:47;;;;;;;;;;;17.30;99.90;;;;;;5091913;28;20361;-73
2021/08/22 12:39:13;;;;;;;;;;;17.20;99.90;;;;;;5092123;28;19912;-73
2021/08/22 12:41:47;;;;;;;;;;;16.90;99.90;;;;;;5092239;28;19930;-73
2021/08/22 12:44:14;;;;;;;;;;;16.60;99.90;;;;;;5092198;28;20288;-73
2021/08/22 12:46:40;;;;;;;;;;;16.60;99.90;;;;;;5091479;28;19916;-73
2021/08/22 12:49:06;;;;;;;;;;;16.40;99.90;;;;;;5091843;28;20045;-73
2021/08/22 12:51:32;;;;;;;;;;;16.60;99.90;;;;;;5091801;28;19953;-73
2021/08/22 12:53:58;;;;;;;;;;;16.50;99.90;;;;;;5091940;28;19911;-73
2021/08/22 12:56:24;;;;;;;;;;;16.50;99.90;;;;;;5091875;28;20420;-73
2021/08/22 12:58:52;;;;;;;;;;;16.60;99.90;;;;;;5089621;28;19915;-73
2021/08/22 13:01:17;;;;;;;;;;;16.80;99.90;;;;;;5085338;28;19918;-73
2021/08/22 13:03:43;;;;;;;;;;;17.10;99.90;;;;;;5091985;28;20007;-72
2021/08/22 13:06:08;;;;;;;;;;;17.10;99.90;;;;;;5090068;28;19995;-73
2021/08/22 13:08:34;;;;;;;;;;;17.10;99.90;;;;;;5091690;28;19908;-73
2021/08/22 13:10:59;;;;;;;;;;;17.50;99.90;;;;;;5091457;28;19908;-73
2021/08/22 13:13:25;;;;;;;;;;;17.60;99.90;;;;;;5091613;28;19912;-72
2021/08/22 13:15:50;;;;;;;;;;;17.90;99.90;;;;;;5091765;28;19912;-73
2021/08/22 13:18:16;;;;;;;;;;;18.20;99.90;;;;;;5091205;28;19908;-73
2021/08/22 13:20:41;;;;;;;;;;;18.20;99.90;;;;;;5091478;28;19962;-73
2021/08/22 13:23:07;;;;;;;;;;;18.00;99.90;;;;;;5091467;28;19912;-72
2021/08/22 13:25:33;;;;;;;;;;;17.90;99.90;;;;;;5091438;28;20422;-73
2021/08/22 13:27:59;;;;;;;;;;;17.80;99.90;;;;;;5091041;28;20385;-72
2021/08/22 13:30:25;;;;;;;;;;;17.50;99.90;;;;;;5083026;28;19943;-72
2021/08/22 13:32:53;;;;;;;;;;;17.60;99.90;;;;;;5091244;28;19915;-72
2021/08/22 13:35:19;;;;;;;;;;;17.50;99.90;;;;;;5091309;28;19954;-72
2021/08/22 13:37:44;;;;;;;;;;;17.40;99.90;;;;;;5090994;28;19951;-72
2021/08/22 13:40:10;;;;;;;;;;;17.50;99.90;;;;;;5091417;28;19912;-72
2021/08/22 13:42:36;;;;;;;;;;;17.30;99.90;;;;;;5091152;28;19908;-72
2021/08/22 13:45:01;;;;;;;;;;;17.10;99.90;;;;;;5090980;28;20308;-73
2021/08/22 13:47:27;;;;;;;;;;;17.00;99.90;;;;;;5090881;28;20010;-73
2021/08/22 13:49:52;;;;;;;;;;;16.80;99.90;;;;;;5091625;28;19995;-73
2021/08/22 13:52:18;;;;;;;;;;;16.60;99.90;;;;;;5091061;28;19908;-73
2021/08/22 13:54:43;;;;;;;;;;;16.40;99.90;;;;;;5091002;28;19912;-73
2021/08/22 13:57:10;;;;;;;;;;;16.50;99.90;;;;;;5090731;28;19915;-73
2021/08/22 13:59:36;;;;;;;;;;;16.60;99.90;;;;;;5083448;28;19961;-74
2021/08/22 14:02:01;;;;;;;;;;;16.80;99.90;;;;;;5092265;28;20007;-74
2021/08/22 14:04:27;;;;;;;;;;;16.90;99.90;;;;;;5095140;28;20434;-74
2021/08/22 14:06:52;;;;;;;;;;;17.30;99.90;;;;;;5094608;28;19912;-73
2021/08/22 14:09:18;;;;;;;;;;;17.60;99.90;;;;;;5094872;28;20049;-73
2021/08/22 14:11:43;;;;;;;;;;;17.60;99.90;;;;;;5094866;28;20301;-73
2021/08/22 14:14:09;;;;;;;;;;;18.20;99.90;;;;;;5094541;28;19908;-73
2021/08/22 14:16:34;;;;;;;;;;;18.30;99.90;;;;;;5094440;28;19919;-73
2021/08/22 14:19:00;;;;;;;;;;;18.40;99.90;;;;;;5094855;28;20382;-73
2021/08/22 14:21:26;;;;;;;;;;;18.70;99.90;;;;;;5094662;28;19915;-73